Time;durP1;ratioP1;P1;durP2;ratioP2;P2;SDS_P1;SDS_P2;PMS_P1;PMS_P2;Temp;Humidity;BMP_temperature;BMP_pressure;BME280_temperature;BME280_humidity;BME280_pressure;Samples;Min_cycle;Max_cycle;Signal;HPM_P1;HPM_P2
2023/01/26 00:03:44;;;;;;;21.67;16.97;;;;;;;5.41;56.49;98476.69;8348827;28;20237;-66
2023/01/26 00:07:47;;;;;;;21.27;16.67;;;;;;;5.38;55.81;98463.91;8349034;28;20234;-65
2023/01/26 00:11:50;;;;;;;21.90;16.93;;;;;;;5.43;56.05;98460.38;8349084;28;20231;-66
2023/01/26 00:15:52;;;;;;;22.00;16.77;;;;;;;5.41;56.08;98466.44;8348734;28;20227;-65
2023/01/26 00:19:58;;;;;;;21.87;16.50;;;;;;;5.49;56.06;98467.16;8348815;28;20229;-66
2023/01/26 00:24:00;;;;;;;21.80;16.60;;;;;;;5.52;56.06;98458.53;8348740;28;20225;-66
2023/01/26 00:28:03;;;;;;;22.00;17.10;;;;;;;5.51;56.22;98452.56;8347936;28;20225;-66
2023/01/26 00:32:06;;;;;;;19.20;14.97;;;;;;;5.63;55.67;98442.06;8348437;28;20234;-65
2023/01/26 00:36:11;;;;;;;22.47;15.40;;;;;;;5.35;56.59;98415.13;8348179;28;20533;-66
2023/01/26 00:40:14;;;;;;;20.60;15.20;;;;;;;5.43;56.19;98444.13;8348108;28;20213;-65
2023/01/26 00:44:16;;;;;;;18.70;14.63;;;;;;;5.47;55.65;98423.50;8347982;28;20228;-66
2023/01/26 00:48:19;;;;;;;20.63;16.50;;;;;;;5.40;55.71;98411.63;8348006;28;20237;-66
2023/01/26 00:52:27;;;;;;;18.33;14.67;;;;;;;5.49;56.15;98416.59;8347753;28;20433;-66
2023/01/26 00:56:30;;;;;;;19.83;14.97;;;;;;;5.53;56.06;98411.44;8347527;28;20236;-65
2023/01/26 01:00:34;;;;;;;19.73;14.80;;;;;;;5.38;56.49;98399.69;8347455;28;20229;-66
2023/01/26 01:04:37;;;;;;;21.13;15.90;;;;;;;5.36;56.90;98394.56;8347299;28;20230;-65
2023/01/26 01:08:42;;;;;;;17.97;13.90;;;;;;;5.36;57.11;98386.03;8347037;28;20229;-66
2023/01/26 01:12:45;;;;;;;19.17;14.33;;;;;;;5.37;56.67;98378.28;8346613;28;20233;-66
2023/01/26 01:16:47;;;;;;;18.23;14.47;;;;;;;5.23;57.08;98368.22;8347083;28;20230;-65
2023/01/26 01:20:50;;;;;;;18.43;14.33;;;;;;;5.33;57.04;98375.78;8346953;28;20251;-66
2023/01/26 01:24:54;;;;;;;20.40;14.40;;;;;;;5.40;56.54;98378.22;8346639;28;20229;-66
2023/01/26 01:28:57;;;;;;;17.47;13.47;;;;;;;5.31;56.87;98380.09;8346699;28;20240;-66
2023/01/26 01:33:00;;;;;;;18.90;13.97;;;;;;;5.19;56.97;98382.00;8346553;28;20233;-66
2023/01/26 01:37:03;;;;;;;19.53;14.83;;;;;;;5.35;56.47;98376.59;8346104;28;20232;-66
2023/01/26 01:41:07;;;;;;;17.60;13.33;;;;;;;5.29;56.19;98373.28;8345264;28;20229;-66
2023/01/26 01:45:36;;;;;;;17.83;13.57;;;;;;;5.14;55.87;98347.00;8345328;28;20243;-66
2023/01/26 01:49:44;;;;;;;19.83;13.60;;;;;;;5.30;55.82;98369.00;8345020;28;20229;-66
2023/01/26 01:53:48;;;;;;;16.13;12.43;;;;;;;5.28;56.20;98366.44;8344722;28;20240;-66
2023/01/26 01:57:55;;;;;;;17.63;13.57;;;;;;;5.33;56.05;98366.38;8344697;28;20545;-66
2023/01/26 02:01:58;;;;;;;18.10;13.87;;;;;;;5.28;56.56;98361.31;8344617;28;20243;-66
2023/01/26 02:06:04;;;;;;;16.90;12.73;;;;;;;5.31;55.32;98357.00;8344745;28;20304;-66
2023/01/26 02:10:19;;;;;;;15.10;12.03;;;;;;;5.31;55.67;98347.56;8344465;28;20432;-66
2023/01/26 02:14:23;;;;;;;16.03;13.13;;;;;;;5.30;55.52;98353.59;8344650;28;20602;-66
2023/01/26 02:18:26;;;;;;;15.97;12.23;;;;;;;5.23;55.74;98363.09;8344645;28;20237;-66
2023/01/26 02:22:38;;;;;;;15.80;11.83;;;;;;;5.34;55.43;98357.78;8344613;28;20233;-65
2023/01/26 02:26:42;;;;;;;15.63;12.67;;;;;;;5.32;55.66;98351.00;8344486;28;20238;-66
2023/01/26 02:30:45;;;;;;;16.43;14.03;;;;;;;5.27;55.62;98345.91;8343849;28;20401;-66
2023/01/26 02:34:48;;;;;;;16.63;12.73;;;;;;;5.37;55.17;98339.78;8344134;28;20239;-65
2023/01/26 02:39:17;;;;;;;17.97;13.63;;;;;;;5.27;55.12;98335.66;8343843;28;20560;-66
2023/01/26 02:43:24;;;;;;;17.23;12.67;;;;;;;5.33;55.52;98324.41;8344126;28;20451;-66
2023/01/26 02:47:27;;;;;;;17.07;13.33;;;;;;;5.38;54.65;98328.59;8343952;28;20227;-65
2023/01/26 02:51:29;;;;;;;15.03;12.23;;;;;;;5.03;55.69;98317.22;8347526;28;20222;-66
2023/01/26 02:55:32;;;;;;;15.67;12.40;;;;;;;5.14;54.53;98322.19;8350476;28;20236;-66
2023/01/26 02:59:36;;;;;;;15.40;12.10;;;;;;;5.08;55.18;98292.34;8350180;28;20323;-66
2023/01/26 03:03:42;;;;;;;17.47;13.37;;;;;;;5.17;54.63;98319.56;8350285;28;20225;-66
2023/01/26 03:07:45;;;;;;;16.17;12.63;;;;;;;5.10;55.11;98302.56;8349407;28;20242;-66
2023/01/26 03:11:48;;;;;;;16.00;12.00;;;;;;;5.23;54.67;98308.34;8350058;28;20542;-66
2023/01/26 03:15:53;;;;;;;17.80;12.50;;;;;;;5.27;54.72;98303.13;8349898;28;20240;-66
2023/01/26 03:28:37;;;;;;;15.30;11.10;;;;;;;5.13;55.24;98304.25;8349171;28;20241;-66
2023/01/26 03:32:41;;;;;;;14.23;10.77;;;;;;;5.09;53.71;98296.56;8349451;28;20232;-66
2023/01/26 03:36:44;;;;;;;13.77;11.17;;;;;;;5.11;55.17;98288.84;8348620;28;20332;-66
2023/01/26 03:58:09;;;;;;;17.87;13.83;;;;;;;5.17;55.17;98278.47;8348365;28;20222;-66
2023/01/26 04:10:55;;;;;;;23.23;16.53;;;;;;;5.20;55.22;98286.13;8348062;28;20248;-66
2023/01/26 04:23:40;;;;;;;20.10;15.60;;;;;;;5.22;55.37;98288.69;8348041;28;20226;-66
2023/01/26 04:27:44;;;;;;;22.27;15.97;;;;;;;5.02;55.90;98283.88;8347208;28;20230;-66
2023/01/26 04:31:47;;;;;;;21.60;15.93;;;;;;;5.16;55.46;98281.06;8347543;28;20429;-66
2023/01/26 04:35:50;;;;;;;21.93;16.13;;;;;;;5.21;55.23;98282.69;8347464;28;20237;-66
2023/01/26 04:39:54;;;;;;;19.93;15.23;;;;;;;5.16;55.41;98283.63;8347313;28;20429;-66
2023/01/26 04:43:57;;;;;;;20.30;15.80;;;;;;;5.16;55.44;98276.78;8347408;28;20231;-66
2023/01/26 04:48:00;;;;;;;22.57;15.83;;;;;;;5.03;55.55;98273.59;8347213;28;20406;-66
2023/01/26 04:52:03;;;;;;;20.50;16.20;;;;;;;5.18;55.27;98259.63;8347154;28;20389;-66
2023/01/26 04:56:08;;;;;;;20.77;15.97;;;;;;;5.17;55.25;98268.19;8346796;28;20228;-65
2023/01/26 05:00:12;;;;;;;20.77;14.90;;;;;;;5.04;55.73;98256.44;8346320;28;20241;-66
2023/01/26 05:04:16;;;;;;;19.83;15.50;;;;;;;5.24;55.25;98266.38;8346833;28;20310;-66
2023/01/26 05:08:20;;;;;;;21.17;15.63;;;;;;;5.11;55.39;98258.03;8346295;28;20233;-66
2023/01/26 05:12:33;;;;;;;19.67;15.43;;;;;;;5.15;55.45;98272.53;8346364;28;20411;-67
2023/01/26 05:16:36;;;;;;;18.20;13.70;;;;;;;5.22;55.40;98276.69;8345590;28;20231;-65
2023/01/26 05:20:39;;;;;;;18.53;14.00;;;;;;;5.25;55.31;98266.38;8346132;28;20331;-65
2023/01/26 05:24:42;;;;;;;17.07;13.50;;;;;;;5.10;55.80;98248.63;8345587;28;20218;-65
2023/01/26 05:28:47;;;;;;;19.90;15.93;;;;;;;5.20;55.91;98268.16;8345407;28;20501;-65
2023/01/26 05:32:49;;;;;;;22.53;17.80;;;;;;;5.14;55.63;98269.97;8345550;28;20245;-66
2023/01/26 05:36:52;;;;;;;22.83;17.83;;;;;;;5.19;55.66;98266.44;8345583;28;20229;-65
2023/01/26 05:40:55;;;;;;;25.60;18.73;;;;;;;5.09;55.82;98268.34;8345231;28;20233;-66
2023/01/26 05:44:59;;;;;;;24.67;18.63;;;;;;;5.13;55.49;98276.84;8345248;28;20237;-67
2023/01/26 05:49:02;;;;;;;22.80;17.27;;;;;;;5.17;55.63;98286.19;8344813;28;20309;-64
2023/01/26 05:53:05;;;;;;;21.73;16.37;;;;;;;5.15;56.39;98282.78;8344564;28;20579;-66
2023/01/26 05:57:08;;;;;;;22.53;17.37;;;;;;;5.05;55.93;98278.69;8344444;28;20233;-66
2023/01/26 06:01:12;;;;;;;22.27;16.70;;;;;;;5.11;56.03;98276.03;8344161;28;20229;-66
2023/01/26 06:05:15;;;;;;;21.27;17.07;;;;;;;4.84;55.68;98215.75;8344988;28;20226;-66
2023/01/26 06:09:18;;;;;;;21.50;16.53;;;;;;;5.05;55.94;98278.69;8344551;28;20229;-66
2023/01/26 06:13:21;;;;;;;21.10;16.93;;;;;;;5.06;55.98;98280.38;8344771;28;20524;-67
2023/01/26 06:17:25;;;;;;;22.17;16.97;;;;;;;5.02;56.21;98278.75;8344657;28;20231;-66
2023/01/26 06:21:28;;;;;;;22.13;17.27;;;;;;;4.85;56.39;98281.59;8344484;28;20225;-66
2023/01/26 06:25:31;;;;;;;21.67;16.17;;;;;;;5.04;55.58;98279.56;8343802;28;20509;-68
2023/01/26 06:29:34;;;;;;;22.50;17.37;;;;;;;5.02;55.74;98284.72;8344320;28;20425;-68
2023/01/26 06:33:38;;;;;;;23.57;17.27;;;;;;;5.06;55.71;98281.25;8344389;28;20232;-66
2023/01/26 06:37:41;;;;;;;21.73;17.03;;;;;;;5.03;55.81;98280.44;8343045;28;20650;-66
2023/01/26 06:41:44;;;;;;;23.17;17.03;;;;;;;4.62;56.05;98285.34;8343384;28;20229;-66
2023/01/26 06:45:48;;;;;;;21.83;16.90;;;;;;;5.03;56.46;98290.72;8343392;28;20521;-66
2023/01/26 06:49:53;;;;;;;20.37;15.70;;;;;;;5.01;56.29;98285.59;8343585;28;20234;-67
2023/01/26 06:53:57;;;;;;;21.13;16.17;;;;;;;5.07;56.58;98271.81;8342717;28;20241;-66
2023/01/26 06:57:59;;;;;;;20.63;15.67;;;;;;;5.02;56.03;98271.88;8343266;28;20462;-66
2023/01/26 07:02:02;;;;;;;20.90;15.67;;;;;;;5.02;56.31;98274.44;8343591;28;20230;-66
2023/01/26 07:06:07;;;;;;;20.77;14.37;;;;;;;4.98;56.54;98280.50;8343763;28;20292;-66
2023/01/26 07:10:10;;;;;;;20.07;13.70;;;;;;;4.94;56.87;98266.03;8343917;28;20233;-67
2023/01/26 07:14:14;;;;;;;18.00;13.27;;;;;;;5.08;56.35;98271.78;8343523;28;20225;-68
2023/01/26 07:18:17;;;;;;;17.73;14.00;;;;;;;5.05;56.05;98281.28;8343177;28;20238;-66
2023/01/26 07:22:21;;;;;;;19.97;15.10;;;;;;;5.16;55.64;98283.63;8343393;28;20557;-67
2023/01/26 07:26:24;;;;;;;19.40;12.90;;;;;;;5.11;55.93;98275.19;8343378;28;20236;-67
2023/01/26 07:30:27;;;;;;;19.47;13.77;;;;;;;5.09;55.80;98260.63;8343167;28;20254;-67
2023/01/26 07:34:30;;;;;;;20.70;15.50;;;;;;;5.10;55.82;98276.88;8342978;28;20252;-67
2023/01/26 07:38:34;;;;;;;18.87;13.50;;;;;;;5.05;55.95;98266.69;8345601;28;20233;-67
2023/01/26 07:42:37;;;;;;;20.70;14.87;;;;;;;5.05;55.84;98271.00;8348793;28;20304;-67
2023/01/26 07:46:40;;;;;;;18.03;13.93;;;;;;;5.12;55.98;98271.72;8348633;28;20217;-67
2023/01/26 07:50:44;;;;;;;17.10;13.87;;;;;;;5.04;56.33;98274.41;8336752;28;20221;-68
2023/01/26 07:54:48;;;;;;;18.10;14.23;;;;;;;5.13;55.83;98274.28;8349015;28;20293;-67
2023/01/26 07:58:51;;;;;;;19.83;13.63;;;;;;;5.08;55.84;98269.22;8348409;28;20248;-68
2023/01/26 08:02:54;;;;;;;16.20;11.13;;;;;;;9.27;78.74;98268.84;8348096;28;20405;-67
2023/01/26 08:06:57;;;;;;;13.80;10.93;;;;;;;9.95;58.80;98259.50;8348122;28;20310;-68
2023/01/26 08:11:02;;;;;;;13.30;10.37;;;;;;;10.49;51.97;98260.09;8347987;28;20237;-67
2023/01/26 08:15:05;;;;;;;15.47;12.60;;;;;;;8.39;47.85;98263.03;8348104;28;20426;-67
2023/01/26 08:19:08;;;;;;;15.27;12.77;;;;;;;6.96;50.61;98264.44;8346963;28;20233;-68
2023/01/26 08:23:11;;;;;;;15.17;12.10;;;;;;;6.51;52.45;98268.09;8348545;28;20308;-68
2023/01/26 08:27:16;;;;;;;14.80;11.33;;;;;;;6.21;52.56;98246.50;8348540;28;20229;-67
2023/01/26 08:31:20;;;;;;;14.73;11.33;;;;;;;6.22;52.65;98264.44;8348579;28;20217;-67
2023/01/26 08:35:23;;;;;;;12.90;11.00;;;;;;;5.74;53.51;98251.72;8348514;28;20425;-68
2023/01/26 08:39:26;;;;;;;18.17;14.67;;;;;;;5.70;53.93;98249.25;8347983;28;20226;-68
2023/01/26 08:43:31;;;;;;;19.97;15.67;;;;;;;5.55;53.95;98215.25;8348309;28;20489;-68
2023/01/26 08:47:33;;;;;;;21.07;15.80;;;;;;;5.55;53.85;98258.09;8347766;28;20229;-68
2023/01/26 08:51:36;;;;;;;17.93;12.97;;;;;;;5.53;54.30;98262.44;8347688;28;20264;-67
2023/01/26 08:55:39;;;;;;;16.63;12.73;;;;;;;5.60;54.14;98262.28;8347722;28;20230;-67
2023/01/26 08:59:43;;;;;;;15.40;12.47;;;;;;;5.60;54.13;98261.44;8347124;28;20230;-67
2023/01/26 09:03:46;;;;;;;17.47;11.60;;;;;;;5.40;54.88;98254.09;8347513;28;20229;-67
2023/01/26 09:07:49;;;;;;;16.23;12.10;;;;;;;5.32;54.50;98258.53;8346828;28;20233;-67
2023/01/26 09:11:55;;;;;;;15.80;12.03;;;;;;;5.45;54.35;98260.84;8347180;28;20241;-67
2023/01/26 09:15:59;;;;;;;16.10;11.87;;;;;;;5.49;54.48;98262.47;8347286;28;20240;-68
2023/01/26 09:20:02;;;;;;;14.50;11.80;;;;;;;5.48;54.23;98267.63;8346694;28;20229;-67
2023/01/26 09:24:05;;;;;;;18.00;13.37;;;;;;;5.43;54.02;98278.00;8346974;28;20410;-67
2023/01/26 09:28:08;;;;;;;17.00;13.30;;;;;;;5.16;55.33;98276.78;8346936;28;20232;-67
2023/01/26 09:32:12;;;;;;;19.13;13.10;;;;;;;4.93;55.21;98271.19;8346851;28;20229;-67
2023/01/26 09:36:15;;;;;;;18.50;13.73;;;;;;;5.28;54.83;98291.97;8346292;28;20229;-67
2023/01/26 09:40:20;;;;;;;21.33;15.17;;;;;;;5.13;54.94;98283.69;8346426;28;20233;-67
2023/01/26 09:44:25;;;;;;;20.37;14.33;;;;;;;5.35;54.47;98290.16;8346485;28;20249;-67
2023/01/26 09:48:35;;;;;;;20.47;15.33;;;;;;;5.29;54.12;98291.09;8346502;28;20227;-66
2023/01/26 09:52:44;;;;;;;17.33;13.23;;;;;;;5.43;54.53;98293.41;8346287;28;20230;-65
2023/01/26 09:56:48;;;;;;;18.73;13.70;;;;;;;5.25;54.70;98289.47;8345567;28;20225;-66
2023/01/26 10:00:52;;;;;;;18.67;12.87;;;;;;;5.29;54.63;98288.53;8345321;28;20237;-66
2023/01/26 10:05:00;;;;;;;17.97;12.50;;;;;;;5.27;54.61;98292.00;8345819;28;20231;-66
2023/01/26 10:09:07;;;;;;;17.67;13.00;;;;;;;5.34;53.81;98292.75;8345384;28;20229;-67
2023/01/26 10:13:13;;;;;;;19.30;13.93;;;;;;;4.49;53.97;98160.75;8345749;28;20223;-67
2023/01/26 10:17:18;;;;;;;19.53;13.53;;;;;;;5.24;53.61;98282.63;8345319;28;20423;-67
2023/01/26 10:21:25;;;;;;;18.27;15.30;;;;;;;5.57;52.55;98270.03;8344665;28;20431;-67
2023/01/26 10:25:31;;;;;;;19.63;14.40;;;;;;;5.29;54.12;98270.56;8344947;28;20232;-66
2023/01/26 10:29:33;;;;;;;18.90;13.77;;;;;;;5.46;53.92;98269.38;8345159;28;20227;-66
2023/01/26 10:33:37;;;;;;;17.63;12.80;;;;;;;5.34;53.59;98249.09;8345338;28;20229;-67
2023/01/26 10:37:42;;;;;;;17.50;12.87;;;;;;;5.23;53.23;98262.09;8344942;28;20237;-67
2023/01/26 10:41:57;;;;;;;16.33;11.97;;;;;;;5.29;53.25;98265.44;8344561;28;20226;-67
2023/01/26 10:46:02;;;;;;;16.33;12.37;;;;;;;5.27;53.08;98261.19;8344894;28;20233;-67
2023/01/26 10:50:16;;;;;;;18.77;14.53;;;;;;;5.28;53.23;98265.44;8344930;28;20526;-67
2023/01/26 10:54:25;;;;;;;19.33;14.17;;;;;;;5.34;53.17;98256.78;8344765;28;20252;-67
2023/01/26 10:58:44;;;;;;;19.03;13.70;;;;;;;5.33;53.14;98240.53;8344774;28;20251;-67
2023/01/26 11:02:50;;;;;;;17.97;13.57;;;;;;;5.41;53.25;98256.66;8344318;28;20256;-67
2023/01/26 11:06:53;;;;;;;19.03;14.50;;;;;;;5.36;53.20;98249.91;8344604;28;20229;-66
2023/01/26 11:10:57;;;;;;;18.23;11.40;;;;;;;5.29;55.19;98216.63;8344408;28;20245;-67
2023/01/26 11:15:02;;;;;;;16.33;12.23;;;;;;;5.36;52.81;98239.63;8350153;28;20434;-67
2023/01/26 11:19:11;;;;;;;14.70;11.53;;;;;;;5.41;52.49;98233.53;8351006;28;20418;-68
2023/01/26 11:23:19;;;;;;;19.67;13.93;;;;;;;5.43;52.81;98223.22;8350587;28;20228;-66
2023/01/26 11:27:39;;;;;;;23.90;17.40;;;;;;;5.38;52.60;98227.59;8350768;28;20225;-67
2023/01/26 11:31:49;;;;;;;24.60;17.43;;;;;;;5.35;52.67;98220.81;8349909;28;20230;-67
2023/01/26 11:35:57;;;;;;;26.67;18.13;;;;;;;5.32;52.99;98215.72;8350333;28;20310;-68
2023/01/26 11:40:09;;;;;;;25.47;17.80;;;;;;;5.38;52.86;98212.19;8350094;28;20233;-67
2023/01/26 11:44:38;;;;;;;26.40;17.97;;;;;;;5.34;52.82;98195.16;8350193;28;20226;-67
2023/01/26 11:48:51;;;;;;;23.63;16.73;;;;;;;5.45;52.63;98198.34;8349821;28;20224;-67
2023/01/26 11:53:30;;;;;;;24.37;17.37;;;;;;;5.39;52.29;98194.19;8349897;28;20241;-67
2023/01/26 11:57:40;;;;;;;24.83;17.73;;;;;;;5.29;53.20;98182.38;8349811;28;20225;-67
2023/01/26 12:01:49;;;;;;;24.23;17.27;;;;;;;5.33;53.03;98194.31;8349077;28;20225;-67
2023/01/26 12:05:54;;;;;;;26.13;18.17;;;;;;;5.22;52.63;98173.13;8349183;28;20233;-67
2023/01/26 12:09:59;;;;;;;27.60;18.80;;;;;;;5.22;53.69;98179.09;8349145;28;20241;-67
2023/01/26 12:14:12;;;;;;;26.50;18.17;;;;;;;5.31;52.82;98167.78;8348959;28;20238;-67
2023/01/26 12:18:22;;;;;;;22.97;17.20;;;;;;;5.41;52.76;98171.03;8349010;28;20230;-67
2023/01/26 12:22:28;;;;;;;26.57;17.77;;;;;;;5.46;51.91;98175.22;8348174;28;20559;-67
2023/01/26 12:26:33;;;;;;;26.97;18.53;;;;;;;5.44;51.64;98166.66;8348926;28;20390;-67
2023/01/26 12:30:42;;;;;;;28.47;18.33;;;;;;;5.43;52.49;98152.16;8348619;28;20271;-67
2023/01/26 12:34:47;;;;;;;27.87;19.97;;;;;;;5.52;52.68;98160.53;8348074;28;20241;-66
2023/01/26 12:39:03;;;;;;;26.63;19.07;;;;;;;5.18;52.57;98151.81;8346458;28;20241;-67
2023/01/26 12:43:19;;;;;;;24.37;17.10;;;;;;;5.23;52.39;98133.72;8348490;28;20234;-67
2023/01/26 12:47:27;;;;;;;29.70;19.70;;;;;;;5.36;52.42;98140.31;8348331;28;20239;-66
2023/01/26 12:51:33;;;;;;;23.37;16.80;;;;;;;5.30;52.71;98127.59;8348091;28;20233;-67
2023/01/26 12:55:41;;;;;;;25.83;17.97;;;;;;;5.38;53.00;98138.53;8347992;28;20238;-67
2023/01/26 12:59:43;;;;;;;17.87;12.87;;;;;;;5.40;52.54;98136.78;8347675;28;20233;-66
2023/01/26 13:03:53;;;;;;;17.33;12.00;;;;;;;5.38;52.12;98130.84;8347711;28;20238;-66
2023/01/26 13:07:59;;;;;;;17.07;12.40;;;;;;;5.46;51.60;98125.53;8347202;28;20283;-66
2023/01/26 13:12:01;;;;;;;16.40;11.97;;;;;;;5.38;52.08;98122.28;8347380;28;20268;-66
2023/01/26 13:16:32;;;;;;;15.40;11.97;;;;;;;5.33;52.20;98122.41;8347407;28;20231;-66
2023/01/26 13:20:46;;;;;;;16.20;11.70;;;;;;;5.20;52.68;98118.41;8346858;28;20525;-66
2023/01/26 13:24:56;;;;;;;16.43;11.97;;;;;;;5.22;52.53;98122.63;8346344;28;20248;-67
2023/01/26 13:29:37;;;;;;;15.07;11.33;;;;;;;5.45;52.47;98122.13;8346914;28;20229;-66
2023/01/26 13:33:41;;;;;;;15.50;10.67;;;;;;;5.38;52.46;98119.72;8341201;28;20237;-65
2023/01/26 13:37:48;;;;;;;14.60;11.30;;;;;;;5.38;52.41;98124.88;8345477;28;20218;-65
2023/01/26 13:41:53;;;;;;;17.63;12.63;;;;;;;5.31;52.24;98123.28;8346223;28;20230;-65
2023/01/26 13:46:02;;;;;;;19.17;13.80;;;;;;;5.40;52.09;98120.53;8346212;28;20402;-65
2023/01/26 13:50:22;;;;;;;20.10;14.20;;;;;;;5.25;52.58;98122.56;8346134;28;20233;-65
2023/01/26 13:54:26;;;;;;;15.17;11.53;;;;;;;5.17;52.65;98121.84;8346292;28;20246;-65
2023/01/26 13:58:30;;;;;;;19.70;13.70;;;;;;;4.98;52.93;98113.66;8346005;28;20434;-64
2023/01/26 14:02:37;;;;;;;15.70;11.93;;;;;;;5.00;52.69;98093.94;8346008;28;20232;-66
2023/01/26 14:06:42;;;;;;;17.80;12.80;;;;;;;5.27;52.05;98117.38;8345458;28;20238;-66
2023/01/26 14:10:45;;;;;;;15.70;11.93;;;;;;;5.22;52.48;98119.22;8345220;28;20226;-66
2023/01/26 14:14:51;;;;;;;14.47;10.80;;;;;;;5.37;52.85;98126.59;8345547;28;20420;-66
2023/01/26 14:19:05;;;;;;;13.63;10.73;;;;;;;5.33;52.17;98129.25;8345484;28;20234;-66
2023/01/26 14:23:13;;;;;;;17.27;12.00;;;;;;;5.10;52.79;98117.72;8345312;28;20236;-66
2023/01/26 14:27:29;;;;;;;15.73;11.23;;;;;;;5.31;52.54;98123.28;8345325;28;20229;-66
2023/01/26 14:31:34;;;;;;;15.80;10.93;;;;;;;5.36;52.70;98136.91;8345282;28;20234;-66
2023/01/26 14:35:37;;;;;;;16.73;11.93;;;;;;;5.24;52.71;98135.44;8345012;28;20420;-66
2023/01/26 14:39:41;;;;;;;17.00;11.13;;;;;;;5.08;53.30;98104.06;8344649;28;20579;-66
2023/01/26 14:43:44;;;;;;;16.10;11.60;;;;;;;5.19;52.93;98126.97;8344393;28;20330;-66
2023/01/26 14:47:48;;;;;;;14.53;11.07;;;;;;;5.03;53.27;98134.13;8349047;28;20259;-66
2023/01/26 14:51:55;;;;;;;16.50;11.73;;;;;;;5.27;52.65;98153.31;8351607;28;20244;-66
2023/01/26 14:55:58;;;;;;;15.23;11.67;;;;;;;5.25;53.31;98155.06;8351488;28;20225;-66
2023/01/26 15:00:04;;;;;;;18.97;12.53;;;;;;;5.21;52.90;98156.03;8351564;28;20454;-66
2023/01/26 15:04:21;;;;;;;16.13;12.33;;;;;;;5.08;52.78;98146.00;8351358;28;20269;-66
2023/01/26 15:08:25;;;;;;;16.70;12.00;;;;;;;5.35;52.95;98148.03;8350724;28;20234;-66
2023/01/26 15:12:33;;;;;;;15.90;11.87;;;;;;;5.35;52.82;98153.16;8350857;28;20233;-67
2023/01/26 15:16:52;;;;;;;16.50;12.03;;;;;;;5.29;53.01;98154.13;8351224;28;20252;-66
2023/01/26 15:20:59;;;;;;;17.87;12.57;;;;;;;5.27;53.18;98143.06;8350213;28;20225;-66
2023/01/26 15:25:06;;;;;;;17.17;13.00;;;;;;;5.19;54.10;98153.47;8350708;28;20255;-67
2023/01/26 15:29:18;;;;;;;18.30;12.70;;;;;;;5.09;54.21;98151.97;8349701;28;20226;-66
2023/01/26 15:33:50;;;;;;;18.50;13.10;;;;;;;4.95;54.30;98147.13;8350154;28;20231;-66
2023/01/26 15:38:02;;;;;;;18.33;12.97;;;;;;;5.17;53.86;98150.09;8349839;28;20263;-66
2023/01/26 15:42:13;;;;;;;19.60;13.70;;;;;;;5.17;54.47;98162.09;8350092;28;20240;-67
2023/01/26 15:46:15;;;;;;;17.97;13.03;;;;;;;5.17;54.81;98160.38;8349556;28;20230;-66
2023/01/26 15:50:18;;;;;;;19.67;13.90;;;;;;;5.22;54.49;98150.88;8351715;28;20298;-66
2023/01/26 15:54:31;;;;;;;16.87;12.07;;;;;;;8.83;75.06;98170.44;8349879;28;20231;-68
2023/01/26 15:58:35;;;;;;;20.83;14.60;;;;;;;6.39;55.28;98162.88;8348623;28;20526;-67
2023/01/26 16:02:38;;;;;;;21.60;15.10;;;;;;;6.09;53.96;98156.75;8349355;28;20442;-67
2023/01/26 16:06:41;;;;;;;20.23;14.73;;;;;;;5.90;54.08;98166.56;8349312;28;20233;-66
2023/01/26 16:10:45;;;;;;;19.80;13.90;;;;;;;5.77;54.58;98171.13;8349409;28;20229;-66
2023/01/26 16:14:48;;;;;;;20.50;14.43;;;;;;;5.71;54.46;98171.25;8349041;28;20236;-67
2023/01/26 16:18:51;;;;;;;21.23;14.33;;;;;;;5.40;54.70;98153.94;8349070;28;20241;-67
2023/01/26 16:22:54;;;;;;;20.30;14.53;;;;;;;5.21;55.04;98149.16;8348602;28;20244;-67
2023/01/26 16:26:58;;;;;;;20.57;14.33;;;;;;;5.46;55.12;98179.47;8348668;28;20237;-67
2023/01/26 16:31:01;;;;;;;22.47;15.57;;;;;;;5.49;55.13;98174.28;8348648;28;20762;-67
2023/01/26 16:35:10;;;;;;;27.00;19.80;;;;;;;5.39;55.31;98173.63;8348741;28;20237;-67
2023/01/26 16:39:14;;;;;;;22.60;15.97;;;;;;;5.36;55.43;98170.28;8348460;28;20590;-67
2023/01/26 16:43:20;;;;;;;19.50;14.03;;;;;;;4.66;54.99;98066.41;8348373;28;20258;-67
2023/01/26 16:47:26;;;;;;;19.70;13.97;;;;;;;5.28;54.80;98163.56;8348088;28;20233;-67
2023/01/26 16:51:31;;;;;;;19.53;14.63;;;;;;;5.42;55.02;98165.84;8348084;28;20241;-66
2023/01/26 16:55:33;;;;;;;21.17;15.30;;;;;;;5.37;54.93;98171.97;8348044;28;20244;-67
2023/01/26 16:59:38;;;;;;;20.77;16.98;;;;;;;5.74;53.72;98148.09;8346685;28;20415;-66
2023/01/26 17:03:41;;;;;;;16.07;12.13;;;;;;;5.39;55.41;98168.50;8347002;28;20532;-67
2023/01/26 17:07:45;;;;;;;14.70;10.90;;;;;;;5.01;55.97;98170.09;8347125;28;20237;-67
2023/01/26 17:11:48;;;;;;;14.37;10.67;;;;;;;5.07;56.09;98169.13;8347453;28;20245;-67
2023/01/26 17:15:52;;;;;;;17.13;11.77;;;;;;;4.84;56.92;98167.00;8347446;28;20297;-66
2023/01/26 17:19:55;;;;;;;15.63;11.17;;;;;;;4.97;56.68;98163.31;8346514;28;20233;-66
2023/01/26 17:24:10;;;;;;;15.07;11.03;;;;;;;5.00;56.19;98153.00;8347089;28;20294;-66
2023/01/26 17:28:13;;;;;;;15.07;10.47;;;;;;;5.14;55.96;98164.72;8346963;28;20225;-66
2023/01/26 17:32:23;;;;;;;13.37;10.00;;;;;;;4.84;56.81;98167.00;8346585;28;20249;-67
2023/01/26 17:36:26;;;;;;;12.90;9.87;;;;;;;5.09;56.41;98165.66;8346722;28;20234;-67
2023/01/26 17:40:29;;;;;;;14.30;10.37;;;;;;;5.12;56.37;98174.16;8346281;28;20233;-66
2023/01/26 17:44:32;;;;;;;23.97;16.83;;;;;;;5.07;57.11;98180.25;8346328;28;20533;-66
2023/01/26 17:48:37;;;;;;;22.03;16.13;;;;;;;5.15;56.25;98174.13;8346538;28;20288;-67
2023/01/26 17:52:40;;;;;;;48.47;33.27;;;;;;;4.98;56.71;98164.16;8346204;28;20559;-66
2023/01/26 17:56:42;;;;;;;18.03;14.57;;;;;;;4.96;56.59;98168.47;8345999;28;20222;-66
2023/01/26 18:00:45;;;;;;;16.90;12.67;;;;;;;5.05;56.54;98181.16;8346240;28;20225;-67
2023/01/26 18:04:50;;;;;;;12.03;9.50;;;;;;;5.01;56.93;98167.53;8345918;28;20238;-67
2023/01/26 18:08:54;;;;;;;11.07;8.07;;;;;;;4.95;57.24;98177.03;8345739;28;20245;-67
2023/01/26 18:12:57;;;;;;;9.40;8.23;;;;;;;5.07;56.92;98174.25;8345653;28;20229;-67
2023/01/26 18:16:59;;;;;;;12.27;9.50;;;;;;;4.89;57.08;98175.44;8345646;28;20236;-67
2023/01/26 18:21:12;;;;;;;10.93;8.93;;;;;;;4.67;57.01;98151.91;8345063;28;20229;-68
2023/01/26 18:25:16;;;;;;;10.83;8.10;;;;;;;4.93;57.48;98182.22;8345272;28;20245;-68
2023/01/26 18:29:19;;;;;;;11.33;8.60;;;;;;;4.93;56.81;98191.63;8345305;28;20221;-68
2023/01/26 18:33:22;;;;;;;9.93;7.40;;;;;;;4.78;57.65;98193.59;8345199;28;20231;-68
2023/01/26 18:37:26;;;;;;;7.20;5.77;;;;;;;4.71;57.34;98199.72;8345092;28;20222;-67
2023/01/26 18:41:30;;;;;;;7.20;5.93;;;;;;;4.69;57.15;98186.06;8345457;28;20539;-67
2023/01/26 18:45:33;;;;;;;8.50;6.37;;;;;;;4.75;56.57;98180.81;8345164;28;20232;-67
2023/01/26 18:49:36;;;;;;;5.97;5.33;;;;;;;4.83;57.21;98178.97;8344955;28;20425;-66
2023/01/26 18:53:40;;;;;;;7.87;5.97;;;;;;;4.85;56.49;98172.06;8345039;28;20226;-67
2023/01/26 18:57:43;;;;;;;5.67;4.83;;;;;;;4.73;56.90;98167.19;8344416;28;20234;-66
2023/01/26 19:01:46;;;;;;;10.83;4.87;;;;;;;9.01;70.09;98184.47;8344709;28;20241;-68
2023/01/26 19:05:48;;;;;;;4.57;4.17;;;;;;;9.45;55.71;98176.03;8344491;28;20238;-67
2023/01/26 19:09:53;;;;;;;6.00;5.23;;;;;;;6.53;53.05;98178.84;8344731;28;20229;-67
2023/01/26 19:13:55;;;;;;;5.33;4.83;;;;;;;5.88;52.77;98174.31;8344916;28;20525;-67
2023/01/26 19:18:01;;;;;;;4.53;4.10;;;;;;;5.85;53.86;98172.66;8344350;28;20233;-67
2023/01/26 19:22:05;;;;;;;6.37;5.47;;;;;;;5.56;54.48;98172.44;8344335;28;20225;-68
2023/01/26 19:26:14;;;;;;;5.50;5.00;;;;;;;4.97;56.07;98183.00;8344403;28;20226;-67
2023/01/26 19:30:18;;;;;;;6.87;5.23;;;;;;;4.93;55.06;98146.31;8344199;28;20237;-67
2023/01/26 19:34:20;;;;;;;5.27;4.77;;;;;;;5.16;55.69;98186.94;8347153;28;20236;-67
2023/01/26 19:38:24;;;;;;;6.10;5.50;;;;;;;4.99;55.45;98169.28;8350008;28;20232;-66
2023/01/26 19:42:28;;;;;;;6.47;5.50;;;;;;;5.08;56.02;98179.38;8350147;28;20237;-66
2023/01/26 19:46:31;;;;;;;8.97;7.30;;;;;;;5.08;55.61;98179.38;8350196;28;20228;-67
2023/01/26 19:50:34;;;;;;;7.20;6.50;;;;;;;4.71;55.88;98140.69;8349991;28;20228;-66